sensor_id;sensor_type;location;lat;lon;timestamp;temperature;humidity
61253;DHT22;47127;47.516;8.596;2023-11-21T00:01:51;9.60;99.90
61253;DHT22;47127;47.516;8.596;2023-11-21T00:04:17;9.50;99.90
61253;DHT22;47127;47.516;8.596;2023-11-21T00:06:42;9.50;99.90
61253;DHT22;47127;47.516;8.596;2023-11-21T00:09:08;9.40;99.90
61253;DHT22;47127;47.516;8.596;2023-11-21T00:11:35;9.40;99.90
61253;DHT22;47127;47.516;8.596;2023-11-21T00:14:00;9.30;99.90
61253;DHT22;47127;47.516;8.596;2023-11-21T00:16:26;9.30;99.90
61253;DHT22;47127;47.516;8.596;2023-11-21T00:18:51;9.30;99.90
61253;DHT22;47127;47.516;8.596;2023-11-21T00:21:17;9.20;99.90
61253;DHT22;47127;47.516;8.596;2023-11-21T00:23:43;9.30;99.90
61253;DHT22;47127;47.516;8.596;2023-11-21T00:26:08;9.30;99.90
61253;DHT22;47127;47.516;8.596;2023-11-21T00:28:34;9.30;99.90
61253;DHT22;47127;47.516;8.596;2023-11-21T00:30:59;9.40;99.90
61253;DHT22;47127;47.516;8.596;2023-11-21T00:33:25;9.40;99.90
61253;DHT22;47127;47.516;8.596;2023-11-21T00:35:51;9.40;99.90
61253;DHT22;47127;47.516;8.596;2023-11-21T00:38:16;9.40;99.90
61253;DHT22;47127;47.516;8.596;2023-11-21T00:40:45;9.40;99.90
61253;DHT22;47127;47.516;8.596;2023-11-21T00:43:10;9.50;99.90
61253;DHT22;47127;47.516;8.596;2023-11-21T00:45:37;9.50;99.90
61253;DHT22;47127;47.516;8.596;2023-11-21T00:48:03;9.40;99.90
61253;DHT22;47127;47.516;8.596;2023-11-21T00:50:30;9.40;99.90
61253;DHT22;47127;47.516;8.596;2023-11-21T00:52:56;9.40;99.90
61253;DHT22;47127;47.516;8.596;2023-11-21T00:55:22;9.50;99.90
61253;DHT22;47127;47.516;8.596;2023-11-21T00:57:48;9.50;99.90
61253;DHT22;47127;47.516;8.596;2023-11-21T01:00:13;9.50;99.90
61253;DHT22;47127;47.516;8.596;2023-11-21T01:02:43;9.50;99.90
61253;DHT22;47127;47.516;8.596;2023-11-21T01:05:09;9.50;99.90
61253;DHT22;47127;47.516;8.596;2023-11-21T01:07:36;9.50;99.90
61253;DHT22;47127;47.516;8.596;2023-11-21T01:10:02;9.60;99.90
61253;DHT22;47127;47.516;8.596;2023-11-21T01:12:28;9.50;99.90
61253;DHT22;47127;47.516;8.596;2023-11-21T01:14:54;9.60;99.90
61253;DHT22;47127;47.516;8.596;2023-11-21T01:17:20;9.60;99.90
61253;DHT22;47127;47.516;8.596;2023-11-21T01:19:47;9.60;99.90
61253;DHT22;47127;47.516;8.596;2023-11-21T01:22:13;9.70;99.90
61253;DHT22;47127;47.516;8.596;2023-11-21T01:24:39;9.60;99.90
61253;DHT22;47127;47.516;8.596;2023-11-21T01:27:04;9.60;99.90
61253;DHT22;47127;47.516;8.596;2023-11-21T01:29:30;9.50;99.90
61253;DHT22;47127;47.516;8.596;2023-11-21T01:31:55;9.30;99.90
61253;DHT22;47127;47.516;8.596;2023-11-21T01:34:23;9.40;99.90
61253;DHT22;47127;47.516;8.596;2023-11-21T01:36:48;9.40;99.90
61253;DHT22;47127;47.516;8.596;2023-11-21T01:39:15;9.40;99.90
61253;DHT22;47127;47.516;8.596;2023-11-21T01:41:44;9.30;99.90
61253;DHT22;47127;47.516;8.596;2023-11-21T01:44:09;9.30;99.90
61253;DHT22;47127;47.516;8.596;2023-11-21T01:46:36;9.30;99.90
61253;DHT22;47127;47.516;8.596;2023-11-21T01:49:03;9.30;99.90
61253;DHT22;47127;47.516;8.596;2023-11-21T01:51:29;9.30;99.90
61253;DHT22;47127;47.516;8.596;2023-11-21T01:53:54;9.20;99.90
61253;DHT22;47127;47.516;8.596;2023-11-21T01:56:20;9.30;99.90
61253;DHT22;47127;47.516;8.596;2023-11-21T01:58:46;9.30;99.90
61253;DHT22;47127;47.516;8.596;2023-11-21T02:01:12;9.20;99.90
61253;DHT22;47127;47.516;8.596;2023-11-21T02:03:37;9.20;99.90
61253;DHT22;47127;47.516;8.596;2023-11-21T02:06:03;9.20;99.90
61253;DHT22;47127;47.516;8.596;2023-11-21T02:08:29;9.30;99.90
61253;DHT22;47127;47.516;8.596;2023-11-21T02:10:54;9.40;99.90
61253;DHT22;47127;47.516;8.596;2023-11-21T02:13:20;9.40;99.90
61253;DHT22;47127;47.516;8.596;2023-11-21T02:15:45;9.30;99.90
61253;DHT22;47127;47.516;8.596;2023-11-21T02:18:12;9.40;99.90
61253;DHT22;47127;47.516;8.596;2023-11-21T02:20:40;9.30;99.90
61253;DHT22;47127;47.516;8.596;2023-11-21T02:23:07;9.20;99.90
61253;DHT22;47127;47.516;8.596;2023-11-21T02:25:33;9.20;99.90
61253;DHT22;47127;47.516;8.596;2023-11-21T02:28:02;9.30;99.90
61253;DHT22;47127;47.516;8.596;2023-11-21T02:30:28;9.30;99.90
61253;DHT22;47127;47.516;8.596;2023-11-21T02:32:56;9.20;99.90
61253;DHT22;47127;47.516;8.596;2023-11-21T02:35:24;9.10;99.90
61253;DHT22;47127;47.516;8.596;2023-11-21T02:37:53;9.00;99.90
61253;DHT22;47127;47.516;8.596;2023-11-21T02:40:19;8.90;99.90
61253;DHT22;47127;47.516;8.596;2023-11-21T02:42:46;8.90;99.90
61253;DHT22;47127;47.516;8.596;2023-11-21T02:45:24;9.00;99.90
61253;DHT22;47127;47.516;8.596;2023-11-21T02:47:49;9.00;99.90
61253;DHT22;47127;47.516;8.596;2023-11-21T02:50:15;8.90;99.90
61253;DHT22;47127;47.516;8.596;2023-11-21T02:52:40;8.80;99.90
61253;DHT22;47127;47.516;8.596;2023-11-21T02:55:06;8.80;99.90
61253;DHT22;47127;47.516;8.596;2023-11-21T02:57:34;8.80;99.90
61253;DHT22;47127;47.516;8.596;2023-11-21T03:00:00;8.70;99.90
61253;DHT22;47127;47.516;8.596;2023-11-21T03:02:26;8.70;99.90
61253;DHT22;47127;47.516;8.596;2023-11-21T03:04:51;8.60;99.90
61253;DHT22;47127;47.516;8.596;2023-11-21T03:07:17;8.60;99.90
61253;DHT22;47127;47.516;8.596;2023-11-21T03:09:45;8.50;99.90
61253;DHT22;47127;47.516;8.596;2023-11-21T03:12:10;8.30;99.90
61253;DHT22;47127;47.516;8.596;2023-11-21T03:14:37;8.30;99.90
61253;DHT22;47127;47.516;8.596;2023-11-21T03:17:03;8.40;99.90
61253;DHT22;47127;47.516;8.596;2023-11-21T03:19:30;8.50;99.90
61253;DHT22;47127;47.516;8.596;2023-11-21T03:21:56;8.50;99.90
61253;DHT22;47127;47.516;8.596;2023-11-21T03:24:22;8.50;99.90
61253;DHT22;47127;47.516;8.596;2023-11-21T03:26:48;8.50;99.90
61253;DHT22;47127;47.516;8.596;2023-11-21T03:29:14;8.50;99.90
61253;DHT22;47127;47.516;8.596;2023-11-21T03:31:40;8.60;99.90
61253;DHT22;47127;47.516;8.596;2023-11-21T03:34:06;8.60;99.90
61253;DHT22;47127;47.516;8.596;2023-11-21T03:36:31;8.80;99.90
61253;DHT22;47127;47.516;8.596;2023-11-21T03:38:57;8.80;99.90
61253;DHT22;47127;47.516;8.596;2023-11-21T03:41:22;8.90;99.90
61253;DHT22;47127;47.516;8.596;2023-11-21T03:43:48;8.80;99.90
61253;DHT22;47127;47.516;8.596;2023-11-21T03:46:14;8.70;99.90
61253;DHT22;47127;47.516;8.596;2023-11-21T03:48:39;8.70;99.90
61253;DHT22;47127;47.516;8.596;2023-11-21T03:51:05;8.60;99.90
61253;DHT22;47127;47.516;8.596;2023-11-21T03:53:31;8.60;99.90
61253;DHT22;47127;47.516;8.596;2023-11-21T03:55:57;8.50;99.90
61253;DHT22;47127;47.516;8.596;2023-11-21T03:58:23;8.40;99.90
61253;DHT22;47127;47.516;8.596;2023-11-21T04:00:48;8.40;99.90
61253;DHT22;47127;47.516;8.596;2023-11-21T04:03:14;8.30;99.90
61253;DHT22;47127;47.516;8.596;2023-11-21T04:05:40;8.40;99.90
61253;DHT22;47127;47.516;8.596;2023-11-21T04:08:06;8.40;99.90
61253;DHT22;47127;47.516;8.596;2023-11-21T04:10:32;8.50;99.90
61253;DHT22;47127;47.516;8.596;2023-11-21T04:12:58;8.60;99.90
61253;DHT22;47127;47.516;8.596;2023-11-21T04:15:23;8.60;99.90
61253;DHT22;47127;47.516;8.596;2023-11-21T04:17:49;8.50;99.90
61253;DHT22;47127;47.516;8.596;2023-11-21T04:20:14;8.40;99.90
61253;DHT22;47127;47.516;8.596;2023-11-21T04:22:41;8.40;99.90
61253;DHT22;47127;47.516;8.596;2023-11-21T04:25:15;8.40;99.90
61253;DHT22;47127;47.516;8.596;2023-11-21T04:27:41;8.30;99.90
61253;DHT22;47127;47.516;8.596;2023-11-21T04:30:09;8.30;99.90
61253;DHT22;47127;47.516;8.596;2023-11-21T04:32:35;8.20;99.90
61253;DHT22;47127;47.516;8.596;2023-11-21T04:35:01;8.30;99.90
61253;DHT22;47127;47.516;8.596;2023-11-21T04:37:27;8.30;99.90
61253;DHT22;47127;47.516;8.596;2023-11-21T04:39:53;8.30;99.90
61253;DHT22;47127;47.516;8.596;2023-11-21T04:42:18;8.30;99.90
61253;DHT22;47127;47.516;8.596;2023-11-21T04:44:44;8.20;99.90
61253;DHT22;47127;47.516;8.596;2023-11-21T04:47:10;8.20;99.90
61253;DHT22;47127;47.516;8.596;2023-11-21T04:49:35;8.20;99.90
61253;DHT22;47127;47.516;8.596;2023-11-21T04:52:01;8.20;99.90
61253;DHT22;47127;47.516;8.596;2023-11-21T04:54:27;8.20;99.90
61253;DHT22;47127;47.516;8.596;2023-11-21T04:56:52;8.30;99.90
61253;DHT22;47127;47.516;8.596;2023-11-21T04:59:18;8.30;99.90
61253;DHT22;47127;47.516;8.596;2023-11-21T05:01:43;8.30;99.90
61253;DHT22;47127;47.516;8.596;2023-11-21T05:04:09;8.30;99.90
61253;DHT22;47127;47.516;8.596;2023-11-21T05:06:35;8.30;99.90
61253;DHT22;47127;47.516;8.596;2023-11-21T05:09:00;8.30;99.90
61253;DHT22;47127;47.516;8.596;2023-11-21T05:11:27;8.30;99.90
61253;DHT22;47127;47.516;8.596;2023-11-21T05:13:53;8.20;99.90
61253;DHT22;47127;47.516;8.596;2023-11-21T05:16:19;8.30;99.90
61253;DHT22;47127;47.516;8.596;2023-11-21T05:18:45;8.20;99.90
61253;DHT22;47127;47.516;8.596;2023-11-21T05:21:10;8.20;99.90
61253;DHT22;47127;47.516;8.596;2023-11-21T05:23:36;8.20;99.90
61253;DHT22;47127;47.516;8.596;2023-11-21T05:26:03;8.20;99.90
61253;DHT22;47127;47.516;8.596;2023-11-21T05:28:28;8.20;99.90
61253;DHT22;47127;47.516;8.596;2023-11-21T05:30:54;8.20;99.90
61253;DHT22;47127;47.516;8.596;2023-11-21T05:33:20;8.20;99.90
61253;DHT22;47127;47.516;8.596;2023-11-21T05:35:46;8.10;99.90
61253;DHT22;47127;47.516;8.596;2023-11-21T05:38:14;8.10;99.90
61253;DHT22;47127;47.516;8.596;2023-11-21T05:40:39;8.10;99.90
61253;DHT22;47127;47.516;8.596;2023-11-21T05:43:05;8.20;99.90
61253;DHT22;47127;47.516;8.596;2023-11-21T05:45:30;8.20;99.90
61253;DHT22;47127;47.516;8.596;2023-11-21T05:47:58;8.30;99.90
61253;DHT22;47127;47.516;8.596;2023-11-21T05:50:23;8.30;99.90
61253;DHT22;47127;47.516;8.596;2023-11-21T05:52:49;8.30;99.90
61253;DHT22;47127;47.516;8.596;2023-11-21T05:55:15;8.30;99.90
61253;DHT22;47127;47.516;8.596;2023-11-21T05:57:42;8.30;99.90
61253;DHT22;47127;47.516;8.596;2023-11-21T06:00:10;8.30;99.90
61253;DHT22;47127;47.516;8.596;2023-11-21T06:02:40;8.20;99.90
61253;DHT22;47127;47.516;8.596;2023-11-21T06:05:07;8.20;99.90
61253;DHT22;47127;47.516;8.596;2023-11-21T06:07:34;8.20;99.90
61253;DHT22;47127;47.516;8.596;2023-11-21T06:10:07;8.20;99.90
61253;DHT22;47127;47.516;8.596;2023-11-21T06:12:37;8.30;99.90
61253;DHT22;47127;47.516;8.596;2023-11-21T06:15:06;8.20;99.90
61253;DHT22;47127;47.516;8.596;2023-11-21T06:17:35;8.20;99.90
61253;DHT22;47127;47.516;8.596;2023-11-21T06:20:06;8.20;99.90
61253;DHT22;47127;47.516;8.596;2023-11-21T06:22:37;8.20;99.90
61253;DHT22;47127;47.516;8.596;2023-11-21T06:25:03;8.20;99.90
61253;DHT22;47127;47.516;8.596;2023-11-21T06:27:34;8.20;99.90
61253;DHT22;47127;47.516;8.596;2023-11-21T06:30:01;8.20;99.90
61253;DHT22;47127;47.516;8.596;2023-11-21T06:32:27;8.20;99.90
61253;DHT22;47127;47.516;8.596;2023-11-21T06:34:56;8.20;99.90
61253;DHT22;47127;47.516;8.596;2023-11-21T06:37:25;8.20;99.90
61253;DHT22;47127;47.516;8.596;2023-11-21T06:39:50;8.20;99.90
61253;DHT22;47127;47.516;8.596;2023-11-21T06:42:17;8.20;99.90
61253;DHT22;47127;47.516;8.596;2023-11-21T06:44:45;8.10;99.90
61253;DHT22;47127;47.516;8.596;2023-11-21T06:47:11;8.20;99.90
61253;DHT22;47127;47.516;8.596;2023-11-21T06:49:36;8.10;99.90
61253;DHT22;47127;47.516;8.596;2023-11-21T06:52:06;8.10;99.90
61253;DHT22;47127;47.516;8.596;2023-11-21T06:54:33;8.20;99.90
61253;DHT22;47127;47.516;8.596;2023-11-21T06:57:00;8.20;99.90
61253;DHT22;47127;47.516;8.596;2023-11-21T06:59:25;8.20;99.90
61253;DHT22;47127;47.516;8.596;2023-11-21T07:01:51;8.20;99.90
61253;DHT22;47127;47.516;8.596;2023-11-21T07:04:17;8.20;99.90
61253;DHT22;47127;47.516;8.596;2023-11-21T07:06:43;8.20;99.90
61253;DHT22;47127;47.516;8.596;2023-11-21T07:09:09;8.20;99.90
61253;DHT22;47127;47.516;8.596;2023-11-21T07:11:37;8.20;99.90
61253;DHT22;47127;47.516;8.596;2023-11-21T07:14:03;8.20;99.90
61253;DHT22;47127;47.516;8.596;2023-11-21T07:16:34;8.20;99.90
61253;DHT22;47127;47.516;8.596;2023-11-21T07:19:00;8.30;99.90
61253;DHT22;47127;47.516;8.596;2023-11-21T07:21:26;8.30;99.90
61253;DHT22;47127;47.516;8.596;2023-11-21T07:23:51;8.20;99.90
61253;DHT22;47127;47.516;8.596;2023-11-21T07:26:17;8.20;99.90
61253;DHT22;47127;47.516;8.596;2023-11-21T07:28:43;8.20;99.90
61253;DHT22;47127;47.516;8.596;2023-11-21T07:31:08;8.30;99.90
61253;DHT22;47127;47.516;8.596;2023-11-21T07:33:34;8.20;99.90
61253;DHT22;47127;47.516;8.596;2023-11-21T07:35:59;8.30;99.90
61253;DHT22;47127;47.516;8.596;2023-11-21T07:38:25;8.30;99.90
61253;DHT22;47127;47.516;8.596;2023-11-21T07:40:51;8.30;99.90
61253;DHT22;47127;47.516;8.596;2023-11-21T07:43:17;8.30;99.90
61253;DHT22;47127;47.516;8.596;2023-11-21T07:45:44;8.40;99.90
61253;DHT22;47127;47.516;8.596;2023-11-21T07:48:10;8.30;99.90
61253;DHT22;47127;47.516;8.596;2023-11-21T07:50:36;8.40;99.90
61253;DHT22;47127;47.516;8.596;2023-11-21T07:53:01;8.40;99.90
61253;DHT22;47127;47.516;8.596;2023-11-21T07:55:27;8.50;99.90
61253;DHT22;47127;47.516;8.596;2023-11-21T07:57:52;8.50;99.90
61253;DHT22;47127;47.516;8.596;2023-11-21T08:00:19;8.60;99.90
61253;DHT22;47127;47.516;8.596;2023-11-21T08:02:46;8.60;99.90
61253;DHT22;47127;47.516;8.596;2023-11-21T08:05:12;8.70;99.90
61253;DHT22;47127;47.516;8.596;2023-11-21T08:07:38;8.60;99.90
61253;DHT22;47127;47.516;8.596;2023-11-21T08:10:03;8.60;99.90
61253;DHT22;47127;47.516;8.596;2023-11-21T08:12:30;8.70;99.90
61253;DHT22;47127;47.516;8.596;2023-11-21T08:14:56;8.70;99.90
61253;DHT22;47127;47.516;8.596;2023-11-21T08:17:21;8.70;99.90
61253;DHT22;47127;47.516;8.596;2023-11-21T08:19:47;8.60;99.90
61253;DHT22;47127;47.516;8.596;2023-11-21T08:22:15;8.60;99.90
61253;DHT22;47127;47.516;8.596;2023-11-21T08:24:43;8.70;99.90
61253;DHT22;47127;47.516;8.596;2023-11-21T08:27:09;8.60;99.90
61253;DHT22;47127;47.516;8.596;2023-11-21T08:29:34;8.70;99.90
61253;DHT22;47127;47.516;8.596;2023-11-21T08:32:02;8.80;99.90
61253;DHT22;47127;47.516;8.596;2023-11-21T08:34:27;8.80;99.90
61253;DHT22;47127;47.516;8.596;2023-11-21T08:36:54;8.80;99.90
61253;DHT22;47127;47.516;8.596;2023-11-21T08:39:19;8.80;99.90
61253;DHT22;47127;47.516;8.596;2023-11-21T08:41:45;8.80;99.90
61253;DHT22;47127;47.516;8.596;2023-11-21T08:44:11;8.80;99.90
61253;DHT22;47127;47.516;8.596;2023-11-21T08:46:36;8.80;99.90
61253;DHT22;47127;47.516;8.596;2023-11-21T08:49:03;8.70;99.90
61253;DHT22;47127;47.516;8.596;2023-11-21T08:51:29;8.70;99.90
61253;DHT22;47127;47.516;8.596;2023-11-21T08:53:55;8.80;99.90
61253;DHT22;47127;47.516;8.596;2023-11-21T08:56:24;8.70;99.90
61253;DHT22;47127;47.516;8.596;2023-11-21T08:58:50;8.70;99.90
61253;DHT22;47127;47.516;8.596;2023-11-21T09:01:15;8.70;99.90
61253;DHT22;47127;47.516;8.596;2023-11-21T09:03:41;8.60;99.90
61253;DHT22;47127;47.516;8.596;2023-11-21T09:06:09;8.70;99.90
61253;DHT22;47127;47.516;8.596;2023-11-21T09:08:35;8.80;99.90
61253;DHT22;47127;47.516;8.596;2023-11-21T09:11:00;8.80;99.90
61253;DHT22;47127;47.516;8.596;2023-11-21T09:13:26;8.80;99.90
61253;DHT22;47127;47.516;8.596;2023-11-21T09:15:52;8.90;99.90
61253;DHT22;47127;47.516;8.596;2023-11-21T09:18:17;8.90;99.90
61253;DHT22;47127;47.516;8.596;2023-11-21T09:20:43;9.00;99.90
61253;DHT22;47127;47.516;8.596;2023-11-21T09:23:09;9.00;99.90
61253;DHT22;47127;47.516;8.596;2023-11-21T09:25:35;9.00;99.90
61253;DHT22;47127;47.516;8.596;2023-11-21T09:28:05;8.90;99.90
61253;DHT22;47127;47.516;8.596;2023-11-21T09:30:35;8.80;99.90
61253;DHT22;47127;47.516;8.596;2023-11-21T09:33:01;8.80;99.90
61253;DHT22;47127;47.516;8.596;2023-11-21T09:35:27;8.90;99.90
61253;DHT22;47127;47.516;8.596;2023-11-21T09:37:53;8.90;99.90
61253;DHT22;47127;47.516;8.596;2023-11-21T09:40:21;8.90;99.90
61253;DHT22;47127;47.516;8.596;2023-11-21T09:42:53;9.00;99.90
61253;DHT22;47127;47.516;8.596;2023-11-21T09:47:53;9.10;99.90
61253;DHT22;47127;47.516;8.596;2023-11-21T09:50:21;9.20;99.90
61253;DHT22;47127;47.516;8.596;2023-11-21T09:53:18;9.30;99.90
61253;DHT22;47127;47.516;8.596;2023-11-21T09:55:53;9.40;99.90
61253;DHT22;47127;47.516;8.596;2023-11-21T09:58:20;9.50;99.90
61253;DHT22;47127;47.516;8.596;2023-11-21T10:00:48;9.50;99.90
61253;DHT22;47127;47.516;8.596;2023-11-21T10:03:15;9.40;99.90
61253;DHT22;47127;47.516;8.596;2023-11-21T10:05:42;9.30;99.90
61253;DHT22;47127;47.516;8.596;2023-11-21T10:08:10;9.30;99.90
61253;DHT22;47127;47.516;8.596;2023-11-21T10:10:37;9.30;99.90
61253;DHT22;47127;47.516;8.596;2023-11-21T10:13:06;9.40;99.90
61253;DHT22;47127;47.516;8.596;2023-11-21T10:15:36;9.30;99.90
61253;DHT22;47127;47.516;8.596;2023-11-21T10:18:03;9.20;99.90
61253;DHT22;47127;47.516;8.596;2023-11-21T10:20:30;9.20;99.90
61253;DHT22;47127;47.516;8.596;2023-11-21T10:22:56;9.10;99.90
61253;DHT22;47127;47.516;8.596;2023-11-21T10:25:22;9.20;99.90
61253;DHT22;47127;47.516;8.596;2023-11-21T10:27:49;9.30;99.90
61253;DHT22;47127;47.516;8.596;2023-11-21T10:30:18;9.30;99.90
61253;DHT22;47127;47.516;8.596;2023-11-21T10:32:45;9.30;99.90
61253;DHT22;47127;47.516;8.596;2023-11-21T10:35:11;9.30;99.90
61253;DHT22;47127;47.516;8.596;2023-11-21T10:37:40;9.30;99.90
61253;DHT22;47127;47.516;8.596;2023-11-21T10:40:10;9.50;99.90
61253;DHT22;47127;47.516;8.596;2023-11-21T10:42:39;9.60;99.90
61253;DHT22;47127;47.516;8.596;2023-11-21T10:45:06;9.70;99.90
61253;DHT22;47127;47.516;8.596;2023-11-21T10:47:43;9.80;99.90
61253;DHT22;47127;47.516;8.596;2023-11-21T10:50:09;10.10;99.90
61253;DHT22;47127;47.516;8.596;2023-11-21T10:52:37;10.40;99.90
61253;DHT22;47127;47.516;8.596;2023-11-21T10:55:16;10.50;99.90
61253;DHT22;47127;47.516;8.596;2023-11-21T10:57:45;10.60;99.90
61253;DHT22;47127;47.516;8.596;2023-11-21T11:00:14;10.70;99.90
61253;DHT22;47127;47.516;8.596;2023-11-21T11:02:40;10.80;99.90
61253;DHT22;47127;47.516;8.596;2023-11-21T11:05:07;11.10;99.90
61253;DHT22;47127;47.516;8.596;2023-11-21T11:07:37;11.20;99.90
61253;DHT22;47127;47.516;8.596;2023-11-21T11:10:05;11.20;99.90
61253;DHT22;47127;47.516;8.596;2023-11-21T11:12:34;11.40;99.90
61253;DHT22;47127;47.516;8.596;2023-11-21T11:15:01;11.50;99.90
61253;DHT22;47127;47.516;8.596;2023-11-21T11:17:28;11.60;99.90
61253;DHT22;47127;47.516;8.596;2023-11-21T11:19:54;11.60;99.90
61253;DHT22;47127;47.516;8.596;2023-11-21T11:22:37;11.60;99.90
61253;DHT22;47127;47.516;8.596;2023-11-21T11:25:37;11.70;99.90
61253;DHT22;47127;47.516;8.596;2023-11-21T11:28:10;11.80;99.90
61253;DHT22;47127;47.516;8.596;2023-11-21T11:31:16;11.70;99.90
61253;DHT22;47127;47.516;8.596;2023-11-21T11:36:48;11.00;99.90
61253;DHT22;47127;47.516;8.596;2023-11-21T11:41:53;10.80;99.90
61253;DHT22;47127;47.516;8.596;2023-11-21T11:47:21;10.40;99.90
61253;DHT22;47127;47.516;8.596;2023-11-21T11:50:02;10.30;99.90
61253;DHT22;47127;47.516;8.596;2023-11-21T11:52:45;10.30;99.90
61253;DHT22;47127;47.516;8.596;2023-11-21T11:55:13;10.20;99.90
61253;DHT22;47127;47.516;8.596;2023-11-21T11:57:42;10.30;99.90
61253;DHT22;47127;47.516;8.596;2023-11-21T12:02:56;10.20;99.90
61253;DHT22;47127;47.516;8.596;2023-11-21T12:05:26;10.20;99.90
61253;DHT22;47127;47.516;8.596;2023-11-21T12:07:57;10.20;99.90
61253;DHT22;47127;47.516;8.596;2023-11-21T12:10:31;10.10;99.90
61253;DHT22;47127;47.516;8.596;2023-11-21T12:12:58;9.70;99.90
61253;DHT22;47127;47.516;8.596;2023-11-21T12:15:24;9.60;99.90
61253;DHT22;47127;47.516;8.596;2023-11-21T12:17:56;9.50;99.90
61253;DHT22;47127;47.516;8.596;2023-11-21T12:20:23;9.40;99.90
61253;DHT22;47127;47.516;8.596;2023-11-21T12:22:51;9.40;99.90
61253;DHT22;47127;47.516;8.596;2023-11-21T12:25:17;9.40;99.90
61253;DHT22;47127;47.516;8.596;2023-11-21T12:27:51;9.50;99.90
61253;DHT22;47127;47.516;8.596;2023-11-21T12:30:19;9.50;99.90
61253;DHT22;47127;47.516;8.596;2023-11-21T12:32:52;9.40;99.90
61253;DHT22;47127;47.516;8.596;2023-11-21T12:35:22;9.30;99.90
61253;DHT22;47127;47.516;8.596;2023-11-21T12:37:49;9.30;99.90
61253;DHT22;47127;47.516;8.596;2023-11-21T12:40:16;9.30;99.90
61253;DHT22;47127;47.516;8.596;2023-11-21T12:42:46;9.40;99.90
61253;DHT22;47127;47.516;8.596;2023-11-21T12:48:09;9.60;99.90
61253;DHT22;47127;47.516;8.596;2023-11-21T12:50:37;9.70;99.90
61253;DHT22;47127;47.516;8.596;2023-11-21T12:53:04;9.80;99.90
61253;DHT22;47127;47.516;8.596;2023-11-21T12:55:34;9.80;99.90
61253;DHT22;47127;47.516;8.596;2023-11-21T12:58:03;9.80;99.90
61253;DHT22;47127;47.516;8.596;2023-11-21T13:00:37;9.80;99.90
61253;DHT22;47127;47.516;8.596;2023-11-21T13:03:05;9.80;99.90
61253;DHT22;47127;47.516;8.596;2023-11-21T13:05:34;9.80;99.90
61253;DHT22;47127;47.516;8.596;2023-11-21T13:08:02;9.80;99.90
61253;DHT22;47127;47.516;8.596;2023-11-21T13:10:30;9.80;99.90
61253;DHT22;47127;47.516;8.596;2023-11-21T13:13:00;9.80;99.90
61253;DHT22;47127;47.516;8.596;2023-11-21T13:15:29;9.90;99.90
61253;DHT22;47127;47.516;8.596;2023-11-21T13:17:57;9.90;99.90
61253;DHT22;47127;47.516;8.596;2023-11-21T13:20:23;9.90;99.90
61253;DHT22;47127;47.516;8.596;2023-11-21T13:22:51;10.00;99.90
61253;DHT22;47127;47.516;8.596;2023-11-21T13:25:23;10.00;99.90
61253;DHT22;47127;47.516;8.596;2023-11-21T13:27:49;9.90;99.90
61253;DHT22;47127;47.516;8.596;2023-11-21T13:30:16;9.90;99.90
61253;DHT22;47127;47.516;8.596;2023-11-21T13:32:45;9.90;99.90
61253;DHT22;47127;47.516;8.596;2023-11-21T13:35:16;9.90;99.90
61253;DHT22;47127;47.516;8.596;2023-11-21T13:37:57;9.90;99.90
61253;DHT22;47127;47.516;8.596;2023-11-21T13:40:26;10.00;99.90
61253;DHT22;47127;47.516;8.596;2023-11-21T13:42:53;10.10;99.90
61253;DHT22;47127;47.516;8.596;2023-11-21T13:45:20;10.10;99.90
61253;DHT22;47127;47.516;8.596;2023-11-21T13:47:47;10.20;99.90
61253;DHT22;47127;47.516;8.596;2023-11-21T13:50:12;10.20;99.90
61253;DHT22;47127;47.516;8.596;2023-11-21T13:52:44;10.20;99.90
61253;DHT22;47127;47.516;8.596;2023-11-21T13:55:12;10.20;99.90
61253;DHT22;47127;47.516;8.596;2023-11-21T13:57:44;10.20;99.90
61253;DHT22;47127;47.516;8.596;2023-11-21T14:00:15;10.10;99.90
61253;DHT22;47127;47.516;8.596;2023-11-21T14:03:01;10.10;99.90
61253;DHT22;47127;47.516;8.596;2023-11-21T14:05:31;10.00;99.90
61253;DHT22;47127;47.516;8.596;2023-11-21T14:07:59;10.00;99.90
61253;DHT22;47127;47.516;8.596;2023-11-21T14:10:31;10.10;99.90
61253;DHT22;47127;47.516;8.596;2023-11-21T14:13:11;10.00;99.90
61253;DHT22;47127;47.516;8.596;2023-11-21T14:15:38;10.00;99.90
61253;DHT22;47127;47.516;8.596;2023-11-21T14:18:07;10.00;99.90
61253;DHT22;47127;47.516;8.596;2023-11-21T14:20:36;10.10;99.90
61253;DHT22;47127;47.516;8.596;2023-11-21T14:23:03;10.10;99.90
61253;DHT22;47127;47.516;8.596;2023-11-21T14:25:31;10.10;99.90
61253;DHT22;47127;47.516;8.596;2023-11-21T14:27:58;10.10;99.90
61253;DHT22;47127;47.516;8.596;2023-11-21T14:30:23;10.10;99.90
61253;DHT22;47127;47.516;8.596;2023-11-21T14:32:50;10.10;99.90
61253;DHT22;47127;47.516;8.596;2023-11-21T14:35:16;10.00;99.90
61253;DHT22;47127;47.516;8.596;2023-11-21T14:37:43;10.00;99.90
61253;DHT22;47127;47.516;8.596;2023-11-21T14:40:09;10.00;99.90
61253;DHT22;47127;47.516;8.596;2023-11-21T14:42:35;9.90;99.90
61253;DHT22;47127;47.516;8.596;2023-11-21T14:45:03;9.90;99.90
61253;DHT22;47127;47.516;8.596;2023-11-21T14:47:35;9.90;99.90
61253;DHT22;47127;47.516;8.596;2023-11-21T14:50:04;9.90;99.90
61253;DHT22;47127;47.516;8.596;2023-11-21T14:52:49;9.90;99.90
61253;DHT22;47127;47.516;8.596;2023-11-21T14:55:25;9.80;99.90
61253;DHT22;47127;47.516;8.596;2023-11-21T14:58:19;9.80;99.90
61253;DHT22;47127;47.516;8.596;2023-11-21T15:00:58;9.80;99.90
61253;DHT22;47127;47.516;8.596;2023-11-21T15:03:29;9.80;99.90
61253;DHT22;47127;47.516;8.596;2023-11-21T15:05:58;9.80;99.90
61253;DHT22;47127;47.516;8.596;2023-11-21T15:08:25;9.80;99.90
61253;DHT22;47127;47.516;8.596;2023-11-21T15:10:57;9.80;99.90
61253;DHT22;47127;47.516;8.596;2023-11-21T15:13:23;9.90;99.90
61253;DHT22;47127;47.516;8.596;2023-11-21T15:15:50;9.90;99.90
61253;DHT22;47127;47.516;8.596;2023-11-21T15:18:16;9.90;99.90
61253;DHT22;47127;47.516;8.596;2023-11-21T15:20:42;9.80;99.90
61253;DHT22;47127;47.516;8.596;2023-11-21T15:23:11;9.80;99.90
61253;DHT22;47127;47.516;8.596;2023-11-21T15:25:38;9.80;99.90
61253;DHT22;47127;47.516;8.596;2023-11-21T15:28:04;9.80;99.90
61253;DHT22;47127;47.516;8.596;2023-11-21T15:30:31;9.80;99.90
61253;DHT22;47127;47.516;8.596;2023-11-21T15:32:58;9.70;99.90
61253;DHT22;47127;47.516;8.596;2023-11-21T15:35:23;9.80;99.90
61253;DHT22;47127;47.516;8.596;2023-11-21T15:37:49;9.70;99.90
61253;DHT22;47127;47.516;8.596;2023-11-21T15:40:15;9.70;99.90
61253;DHT22;47127;47.516;8.596;2023-11-21T15:42:42;9.70;99.90
61253;DHT22;47127;47.516;8.596;2023-11-21T15:45:08;9.70;99.90
61253;DHT22;47127;47.516;8.596;2023-11-21T15:47:34;9.70;99.90
61253;DHT22;47127;47.516;8.596;2023-11-21T15:50:00;9.70;99.90
61253;DHT22;47127;47.516;8.596;2023-11-21T15:52:26;9.70;99.90
61253;DHT22;47127;47.516;8.596;2023-11-21T15:54:54;9.70;99.90
61253;DHT22;47127;47.516;8.596;2023-11-21T15:57:19;9.70;99.90
61253;DHT22;47127;47.516;8.596;2023-11-21T15:59:47;9.70;99.90
61253;DHT22;47127;47.516;8.596;2023-11-21T16:02:13;9.60;99.90
61253;DHT22;47127;47.516;8.596;2023-11-21T16:04:41;9.70;99.90